Time;durP1;ratioP1;P1;durP2;ratioP2;P2;SDS_P1;SDS_P2;PMS_P1;PMS_P2;Temp;Humidity;BMP_temperature;BMP_pressure;BME280_temperature;BME280_humidity;BME280_pressure;Samples;Min_cycle;Max_cycle;Signal;HPM_P1;HPM_P2
2023/10/02 00:01:51;;;;;;;12.38;11.30;;;;;;;23.78;44.80;95683.00;6017515;29;108780;-61
2023/10/02 00:04:54;;;;;;;12.75;11.65;;;;;;;23.75;45.04;95676.38;6016563;28;108938;-61
2023/10/02 00:08:00;;;;;;;11.60;10.70;;;;;;;23.79;45.23;95673.88;6015265;29;109256;-60
2023/10/02 00:14:38;;;;;;;12.03;11.07;;;;;;;23.73;44.75;95665.22;6017719;29;109209;-61
2023/10/02 00:17:43;;;;;;;12.20;11.30;;;;;;;23.77;44.92;95668.84;6014998;29;108875;-61
2023/10/02 00:21:17;;;;;;;12.18;11.18;;;;;;;23.76;44.78;95672.63;6011158;29;109058;-61
2023/10/02 00:24:13;;;;;;;12.70;11.60;;;;;;;23.78;44.86;95680.34;6016128;28;108928;-60
2023/10/02 00:27:16;;;;;;;12.55;11.45;;;;;;;23.77;44.68;95676.88;6015273;29;108931;-61
2023/10/02 00:30:22;;;;;;;11.85;10.85;;;;;;;23.78;44.39;95670.44;6015734;28;108993;-60
2023/10/02 00:33:27;;;;;;;12.98;11.88;;;;;;;23.79;44.37;95671.22;6003868;29;108939;-61
2023/10/02 00:36:31;;;;;;;12.20;11.10;;;;;;;23.77;44.34;95674.19;6015164;28;109096;-61
2023/10/02 00:39:37;;;;;;;11.00;10.10;;;;;;;23.77;44.45;95663.50;6016213;29;108830;-60
2023/10/02 00:42:40;;;;;;;10.87;10.00;;;;;;;23.73;44.56;95667.88;6016643;28;109284;-61
2023/10/02 00:45:42;;;;;;;10.68;9.88;;;;;;;23.71;44.29;95664.72;6002601;28;108841;-61
2023/10/02 00:48:45;;;;;;;10.57;9.68;;;;;;;23.74;43.89;95657.97;6016183;28;109204;-61
2023/10/02 00:52:00;;;;;;;10.18;9.38;;;;;;;23.72;43.81;95671.63;6016538;28;108871;-61
2023/10/02 00:55:06;;;;;;;10.00;9.20;;;;;;;23.67;44.32;95670.94;5989495;29;109855;-61
2023/10/02 00:58:15;;;;;;;10.03;9.17;;;;;;;23.70;43.80;95657.78;6013553;28;108918;-61
2023/10/02 01:01:19;;;;;;;9.85;8.90;;;;;;;23.70;43.81;95665.03;6015713;28;110183;-60
2023/10/02 01:04:28;;;;;;;9.00;8.30;;;;;;;23.70;44.10;95657.00;6016598;28;108955;-60
2023/10/02 01:07:33;;;;;;;8.90;8.10;;;;;;;23.70;43.68;95657.00;6003210;28;109480;-61
2023/10/02 01:10:40;;;;;;;9.15;8.35;;;;;;;23.68;43.76;95657.28;6015282;28;108920;-60
2023/10/02 01:13:44;;;;;;;9.50;8.60;;;;;;;23.68;43.63;95657.28;6015539;28;108961;-60
2023/10/02 01:16:50;;;;;;;9.60;8.70;;;;;;;23.68;43.59;95654.59;6014422;28;109155;-60
2023/10/02 01:19:54;;;;;;;9.20;8.40;;;;;;;23.68;43.60;95654.59;6005917;28;108955;-60
2023/10/02 01:23:16;;;;;;;8.85;8.05;;;;;;;23.68;43.41;95646.59;6015757;28;109000;-58
2023/10/02 01:26:20;;;;;;;9.20;8.40;;;;;;;23.67;43.61;95645.00;6013689;28;109301;-61
2023/10/02 01:29:23;;;;;;;9.10;8.20;;;;;;;23.70;43.15;95646.31;5992688;28;109160;-60
2023/10/02 01:32:27;;;;;;;8.13;7.43;;;;;;;23.66;43.35;95656.00;6015562;28;109245;-60
2023/10/02 01:35:32;;;;;;;9.18;8.38;;;;;;;23.67;43.22;95647.69;6014259;28;109058;-59
2023/10/02 01:38:37;;;;;;;8.75;7.85;;;;;;;23.63;43.66;95641.38;6009979;28;109152;-60
2023/10/02 01:41:48;;;;;;;8.10;7.40;;;;;;;23.66;43.69;95654.13;6003721;29;108841;-60
2023/10/02 01:44:55;;;;;;;8.50;7.80;;;;;;;23.65;43.54;95649.06;6013849;28;109261;-61
2023/10/02 01:47:59;;;;;;;8.77;7.97;;;;;;;23.66;43.69;95643.44;6008909;29;109554;-59
2023/10/02 01:51:15;;;;;;;8.35;7.65;;;;;;;23.65;43.50;95652.53;6015626;28;109207;-60
2023/10/02 01:54:19;;;;;;;8.40;7.60;;;;;;;23.65;43.17;95657.09;6009362;28;109324;-60
2023/10/02 01:57:29;;;;;;;8.60;7.80;;;;;;;23.63;43.19;95662.75;6015471;28;109272;-60
2023/10/02 02:00:34;;;;;;;8.90;8.10;;;;;;;23.64;43.32;95660.84;6018868;28;109021;-60
2023/10/02 02:03:38;;;;;;;9.00;8.20;;;;;;;23.63;43.17;95665.41;6009314;29;109445;-59
2023/10/02 02:06:51;;;;;;;8.87;8.07;;;;;;;23.65;43.05;95665.91;6018130;28;109079;-60
2023/10/02 02:09:54;;;;;;;8.18;7.55;;;;;;;23.64;43.09;95667.00;6018716;28;108914;-60
2023/10/02 02:12:59;;;;;;;9.43;8.50;;;;;;;23.65;42.64;95665.09;6018418;28;109251;-60
2023/10/02 02:16:07;;;;;;;9.00;8.10;;;;;;;23.61;42.74;95667.59;6006640;28;110144;-60
2023/10/02 02:19:12;;;;;;;8.93;8.15;;;;;;;23.62;42.90;95669.19;6016399;28;108959;-60
2023/10/02 02:22:16;;;;;;;8.45;7.65;;;;;;;23.61;42.67;95670.28;6019323;28;108992;-60
2023/10/02 02:25:26;;;;;;;8.40;7.60;;;;;;;23.62;42.60;95671.06;6016101;28;108978;-61
2023/10/02 02:28:43;;;;;;;8.10;7.40;;;;;;;23.57;42.85;95674.63;6012828;28;109404;-60
2023/10/02 02:31:46;;;;;;;8.18;7.38;;;;;;;23.58;42.60;95678.88;6018011;28;108959;-61
2023/10/02 02:35:00;;;;;;;8.10;7.40;;;;;;;23.58;42.52;95676.22;6017398;28;108987;-61
2023/10/02 02:38:13;;;;;;;7.60;6.80;;;;;;;23.58;42.16;95674.34;6007772;28;108898;-60
2023/10/02 02:41:18;;;;;;;7.30;6.70;;;;;;;23.56;42.52;95683.75;6018964;28;109130;-59
2023/10/02 02:44:39;;;;;;;7.80;7.10;;;;;;;23.59;42.34;95681.25;6016537;28;109038;-60
2023/10/02 02:47:51;;;;;;;7.50;6.80;;;;;;;23.56;42.20;95678.41;6017678;28;109022;-60
2023/10/02 02:50:54;;;;;;;7.85;7.15;;;;;;;23.59;42.04;95683.94;6007894;28;108910;-60
2023/10/02 02:53:58;;;;;;;7.57;6.90;;;;;;;23.57;42.38;95677.31;6017329;28;109453;-59
2023/10/02 02:57:01;;;;;;;7.15;6.55;;;;;;;23.58;42.26;95674.34;6015968;28;109009;-59
2023/10/02 03:03:41;;;;;;;7.03;6.32;;;;;;;23.53;41.94;95671.00;5990481;28;109037;-60
2023/10/02 03:06:44;;;;;;;7.57;6.88;;;;;;;23.52;42.22;95669.38;6016790;28;109203;-60
2023/10/02 03:09:47;;;;;;;7.80;7.00;;;;;;;23.51;41.97;95673.94;6016124;28;108957;-60
2023/10/02 03:12:52;;;;;;;7.28;6.57;;;;;;;23.54;42.22;95672.56;6006568;28;108926;-60
2023/10/02 03:16:08;;;;;;;7.78;7.00;;;;;;;23.58;41.84;95674.34;6015846;28;108955;-60
2023/10/02 03:19:13;;;;;;;7.65;6.85;;;;;;;23.58;41.30;95676.22;6016553;29;109021;-60
2023/10/02 03:22:20;;;;;;;10.35;8.40;;;;;;;23.58;41.74;95678.88;6010965;28;108858;-62
2023/10/02 03:25:28;;;;;;;9.40;8.40;;;;;;;23.58;41.73;95679.69;5988884;29;108959;-60
2023/10/02 03:28:32;;;;;;;8.37;7.47;;;;;;;23.55;40.64;95674.16;6011636;29;109139;-60
2023/10/02 03:31:43;;;;;;;9.00;8.10;;;;;;;23.55;40.88;95676.81;6017906;28;108980;-60
2023/10/02 03:35:02;;;;;;;8.87;7.97;;;;;;;23.54;41.10;95685.94;6007444;28;108819;-60
2023/10/02 03:38:05;;;;;;;7.90;7.10;;;;;;;23.54;41.00;95675.25;6018886;28;108954;-61
2023/10/02 03:41:10;;;;;;;8.95;8.05;;;;;;;23.52;40.71;95680.06;6017646;28;108882;-60
2023/10/02 03:44:14;;;;;;;10.03;7.37;;;;;;;23.23;39.90;95681.16;6018058;29;108932;-60
2023/10/02 03:47:18;;;;;;;7.87;6.60;;;;;;;23.01;39.04;95681.03;6003921;28;109510;-60
2023/10/02 03:50:24;;;;;;;5.90;5.13;;;;;;;22.78;38.19;95679.34;6018437;28;108866;-60
2023/10/02 03:53:30;;;;;;;8.40;5.28;;;;;;;22.86;38.48;95684.81;6016851;28;109220;-60
2023/10/02 03:56:36;;;;;;;7.87;5.40;;;;;;;22.83;37.97;95687.25;6008837;28;109151;-60
2023/10/02 03:59:52;;;;;;;6.10;5.50;;;;;;;22.75;37.46;95682.59;6010858;28;108943;-60
2023/10/02 04:02:59;;;;;;;6.93;5.05;;;;;;;22.72;37.01;95673.31;6017297;28;108914;-60
2023/10/02 04:06:06;;;;;;;7.85;5.10;;;;;;;22.70;37.07;95678.94;6015135;28;108841;-60
2023/10/02 04:09:21;;;;;;;6.40;4.70;;;;;;;22.78;36.11;95690.81;6004284;28;108976;-60
2023/10/02 04:12:24;;;;;;;7.38;4.70;;;;;;;22.73;35.93;95692.78;6015620;29;108969;-61
2023/10/02 04:15:30;;;;;;;8.18;4.75;;;;;;;22.61;36.09;95694.03;6014206;28;109286;-60
2023/10/02 04:21:56;;;;;;;6.03;4.90;;;;;;;22.64;36.28;95706.00;5996902;28;110487;-61
2023/10/02 04:25:03;;;;;;;7.35;4.80;;;;;;;22.62;36.47;95716.16;6016684;29;108845;-56
2023/10/02 04:28:08;;;;;;;5.60;4.60;;;;;;;22.80;36.53;95720.66;6016430;28;109005;-56
2023/10/02 04:31:20;;;;;;;7.10;5.50;;;;;;;22.94;37.23;95723.34;6009875;28;108962;-60
2023/10/02 04:34:29;;;;;;;6.80;5.30;;;;;;;22.87;37.12;95704.28;6015457;28;109361;-58
2023/10/02 04:37:36;;;;;;;6.97;5.03;;;;;;;22.99;36.77;95713.38;6016703;28;109182;-59
2023/10/02 04:40:49;;;;;;;7.32;5.13;;;;;;;22.99;37.11;95724.03;6016938;28;108968;-60
2023/10/02 04:43:57;;;;;;;8.10;5.10;;;;;;;22.98;36.92;95719.00;6005849;28;108917;-60
2023/10/02 04:47:01;;;;;;;6.80;5.70;;;;;;;23.01;36.47;95726.41;6016432;28;108806;-60
2023/10/02 04:53:28;;;;;;;7.97;6.03;;;;;;;23.00;37.01;95724.84;6012112;29;108763;-59
2023/10/02 04:56:32;;;;;;;7.75;5.40;;;;;;;23.04;36.59;95733.88;6011259;28;109877;-59
2023/10/02 04:59:51;;;;;;;6.38;4.80;;;;;;;23.01;36.73;95731.75;6016107;28;108932;-59
2023/10/02 05:03:09;;;;;;;6.40;5.57;;;;;;;22.99;36.54;95739.28;6016275;28;108812;-60
2023/10/02 05:06:16;;;;;;;7.33;5.10;;;;;;;23.03;36.55;95731.50;6005505;28;109049;-59
2023/10/02 05:09:26;;;;;;;6.82;5.28;;;;;;;23.00;36.61;95741.66;6015789;28;108926;-60
2023/10/02 05:12:35;;;;;;;8.52;6.20;;;;;;;23.01;36.84;95737.09;6016443;28;108802;-60
2023/10/02 05:16:03;;;;;;;5.93;5.13;;;;;;;22.97;36.92;95742.25;6016108;28;108836;-60
2023/10/02 05:19:03;;;;;;;6.97;5.78;;;;;;;22.95;36.36;95741.75;6008494;28;109073;-60
2023/10/02 05:22:08;;;;;;;7.10;6.40;;;;;;;22.99;36.57;95747.28;6015161;28;108937;-60
2023/10/02 05:25:18;;;;;;;7.75;6.35;;;;;;;23.00;36.99;95741.66;6015792;28;108995;-59
2023/10/02 05:28:21;;;;;;;7.70;6.00;;;;;;;22.96;37.02;95740.66;6005235;28;109325;-60
2023/10/02 05:31:27;;;;;;;6.40;5.20;;;;;;;23.01;36.50;95742.44;6005252;28;108894;-59
2023/10/02 05:34:30;;;;;;;6.50;5.00;;;;;;;23.00;36.83;95756.88;6013509;29;108862;-60
2023/10/02 05:37:41;;;;;;;7.38;5.07;;;;;;;23.03;36.95;95752.84;6019697;28;108970;-60
2023/10/02 05:40:47;;;;;;;6.53;5.32;;;;;;;23.04;36.76;95757.09;6009795;28;108783;-60
2023/10/02 05:43:56;;;;;;;6.70;5.60;;;;;;;23.03;36.04;95750.19;6019896;28;108962;-59
2023/10/02 05:47:05;;;;;;;5.50;4.67;;;;;;;23.04;36.82;95755.22;6019465;28;108902;-60
2023/10/02 05:50:09;;;;;;;5.87;4.73;;;;;;;23.00;36.57;95749.66;6014593;28;109088;-60
2023/10/02 05:53:15;;;;;;;5.97;4.47;;;;;;;23.03;36.40;95758.19;6013408;28;109094;-59
2023/10/02 05:56:18;;;;;;;4.77;4.23;;;;;;;23.09;36.18;95765.78;6019684;28;108916;-59
2023/10/02 05:59:24;;;;;;;7.30;5.40;;;;;;;23.08;36.06;95755.41;6019314;28;108930;-59
2023/10/02 06:02:28;;;;;;;5.88;4.50;;;;;;;23.03;36.80;95745.63;6009599;28;110128;-60
2023/10/02 06:05:31;;;;;;;6.70;4.60;;;;;;;23.15;36.53;95763.81;6020012;28;108917;-60
2023/10/02 06:08:40;;;;;;;7.20;4.53;;;;;;;23.18;36.34;95763.22;6019540;28;108884;-60
2023/10/02 06:12:05;;;;;;;6.10;4.70;;;;;;;23.22;36.29;95769.59;6019728;28;109135;-60
2023/10/02 06:15:43;;;;;;;6.05;3.97;;;;;;;23.33;36.33;95768.31;6009857;28;109970;-59
2023/10/02 06:18:33;;;;;;;5.97;3.93;;;;;;;23.41;36.04;95775.66;6018666;28;109018;-60
2023/10/02 06:21:45;;;;;;;4.70;3.90;;;;;;;23.50;36.48;95775.75;6019311;28;109216;-60
2023/10/02 06:24:51;;;;;;;5.90;4.07;;;;;;;23.59;36.05;95774.78;6007476;28;108979;-59
2023/10/02 06:28:14;;;;;;;5.13;4.00;;;;;;;23.71;35.84;95781.50;6019210;28;109357;-60
2023/10/02 06:31:30;;;;;;;4.67;3.90;;;;;;;23.84;35.62;95788.72;6019337;28;109213;-59
2023/10/02 06:34:38;;;;;;;4.32;3.75;;;;;;;23.95;35.39;95791.97;6018862;28;108831;-59
2023/10/02 06:37:43;;;;;;;4.57;3.83;;;;;;;24.03;34.93;95796.66;6008643;29;110493;-59
2023/10/02 06:40:55;;;;;;;5.55;4.40;;;;;;;24.12;35.16;95797.53;6019697;28;108801;-59
2023/10/02 06:44:14;;;;;;;5.15;3.90;;;;;;;24.20;35.08;95804.84;6018099;28;108885;-60
2023/10/02 06:47:18;;;;;;;4.30;3.63;;;;;;;24.28;34.52;95806.81;6013875;28;108937;-60
2023/10/02 06:50:27;;;;;;;5.20;4.03;;;;;;;24.34;34.71;95808.25;6013337;28;108961;-59
2023/10/02 06:53:31;;;;;;;4.90;3.53;;;;;;;24.40;34.26;95801.72;6018912;28;108903;-57
2023/10/02 06:56:36;;;;;;;5.53;4.00;;;;;;;24.46;34.30;95813.88;6018289;28;109248;-56
2023/10/02 06:59:40;;;;;;;5.70;3.80;;;;;;;24.51;34.56;95810.31;6008131;28;108904;-57
2023/10/02 07:02:54;;;;;;;4.93;3.60;;;;;;;24.57;33.99;95813.66;6018671;28;108911;-56
2023/10/02 07:05:58;;;;;;;5.57;3.70;;;;;;;24.66;34.29;95815.31;6018368;28;108944;-57
2023/10/02 07:09:11;;;;;;;6.50;3.90;;;;;;;24.69;34.26;95816.59;6018447;28;109086;-57
2023/10/02 07:12:16;;;;;;;4.47;3.80;;;;;;;24.71;34.15;95822.47;6007630;28;109585;-57
2023/10/02 07:15:22;;;;;;;4.57;3.90;;;;;;;24.76;33.98;95807.06;6018385;28;109046;-58
2023/10/02 07:18:35;;;;;;;4.60;3.67;;;;;;;24.81;33.92;95814.19;6018611;28;109080;-57
2023/10/02 07:21:40;;;;;;;4.90;3.60;;;;;;;24.83;33.63;95812.00;6009096;28;109042;-59
2023/10/02 07:24:46;;;;;;;4.00;3.30;;;;;;;24.87;34.06;95813.00;6018022;28;109020;-57
2023/10/02 07:27:57;;;;;;;4.93;3.30;;;;;;;24.85;33.76;95796.41;6017310;28;108940;-56
2023/10/02 07:31:01;;;;;;;4.90;3.50;;;;;;;24.88;33.93;95803.88;6018424;29;108905;-56
2023/10/02 07:34:07;;;;;;;5.65;3.90;;;;;;;25.00;33.81;95806.75;6007851;28;109203;-57
2023/10/02 07:37:13;;;;;;;6.13;4.00;;;;;;;25.02;33.70;95811.81;6018392;28;109268;-57
2023/10/02 07:40:22;;;;;;;5.70;3.90;;;;;;;25.06;33.69;95816.25;6018237;28;108994;-56
2023/10/02 07:43:27;;;;;;;5.30;3.70;;;;;;;25.11;34.27;95809.19;6018348;29;108878;-57
2023/10/02 07:46:31;;;;;;;6.00;4.20;;;;;;;25.19;33.87;95813.78;6007411;28;108954;-56
2023/10/02 07:49:34;;;;;;;5.15;3.70;;;;;;;25.20;33.71;95821.53;6018061;28;108979;-57
2023/10/02 07:52:39;;;;;;;5.10;3.70;;;;;;;25.21;34.00;95819.66;6018110;28;109234;-57
2023/10/02 07:55:46;;;;;;;4.90;3.63;;;;;;;25.27;33.50;95819.22;6008373;28;108867;-59
2023/10/02 07:58:55;;;;;;;4.75;3.67;;;;;;;25.32;33.31;95821.75;6016679;28;108882;-57
2023/10/02 08:02:21;;;;;;;4.40;3.65;;;;;;;25.28;33.40;95823.47;6017656;28;108942;-57
2023/10/02 08:05:21;;;;;;;4.90;3.50;;;;;;;25.30;33.83;95813.25;6017627;28;109131;-60
2023/10/02 08:08:31;;;;;;;4.60;3.50;;;;;;;25.34;33.52;95808.06;6007921;28;110375;-60
2023/10/02 08:11:34;;;;;;;5.30;3.65;;;;;;;25.29;33.60;95816.22;6017576;28;108809;-60
2023/10/02 08:14:42;;;;;;;7.22;4.50;;;;;;;25.27;33.72;95819.22;6017291;28;108952;-60
2023/10/02 08:18:03;;;;;;;6.80;3.72;;;;;;;25.29;33.72;95822.38;6013838;28;108968;-59
2023/10/02 08:21:07;;;;;;;4.88;3.90;;;;;;;25.29;33.52;95821.59;6012067;28;108968;-60
2023/10/02 08:24:11;;;;;;;5.50;3.63;;;;;;;25.30;33.72;95820.50;6016951;28;109083;-60
2023/10/02 08:27:14;;;;;;;4.70;3.70;;;;;;;25.34;33.58;95811.53;6017261;28;109025;-60
2023/10/02 08:30:28;;;;;;;6.40;3.65;;;;;;;25.33;33.57;95811.84;6005358;28;108868;-59
2023/10/02 08:33:33;;;;;;;4.88;3.80;;;;;;;25.27;33.62;95823.78;6016521;28;108741;-59
2023/10/02 08:37:07;;;;;;;6.40;4.15;;;;;;;25.25;33.27;95817.94;6017532;28;108884;-59
2023/10/02 08:40:14;;;;;;;4.50;3.83;;;;;;;25.29;33.15;95818.91;6016718;28;109176;-60
2023/10/02 08:43:22;;;;;;;4.15;3.58;;;;;;;25.24;33.57;95811.00;6006002;28;108956;-61
2023/10/02 08:46:27;;;;;;;4.70;3.70;;;;;;;25.29;33.13;95818.91;6016910;28;109141;-60
2023/10/02 08:49:31;;;;;;;4.97;3.80;;;;;;;25.26;33.23;95808.81;6016011;28;108991;-61
2023/10/02 08:52:41;;;;;;;5.18;3.90;;;;;;;25.21;33.58;95812.41;6006859;28;108944;-59
2023/10/02 08:55:51;;;;;;;4.88;4.22;;;;;;;25.23;33.59;95809.44;6016139;28;109024;-60
2023/10/02 08:59:17;;;;;;;5.43;4.05;;;;;;;25.22;33.71;95803.28;6016701;28;108839;-60
2023/10/02 09:02:26;;;;;;;6.80;4.00;;;;;;;25.21;33.54;95809.75;6016226;28;108773;-59
2023/10/02 09:05:36;;;;;;;6.28;4.20;;;;;;;25.18;33.40;95806.84;6006053;28;109192;-59
2023/10/02 09:09:13;;;;;;;5.30;4.07;;;;;;;25.16;33.59;95801.81;6015962;28;108734;-60
2023/10/02 09:12:14;;;;;;;4.60;3.70;;;;;;;25.17;33.70;95803.38;5992994;29;108969;-61
2023/10/02 09:15:29;;;;;;;5.07;3.90;;;;;;;25.19;33.57;95805.75;5995239;28;108929;-58
2023/10/02 09:19:07;;;;;;;5.50;3.67;;;;;;;25.22;33.53;95792.56;6016259;29;108967;-56
2023/10/02 09:22:10;;;;;;;5.85;3.78;;;;;;;25.22;33.68;95794.47;5992980;29;108924;-57
2023/10/02 09:25:15;;;;;;;5.30;3.90;;;;;;;25.23;33.63;95796.03;6004399;29;108985;-58
2023/10/02 09:28:40;;;;;;;4.00;3.60;;;;;;;25.21;33.59;95791.00;6005202;29;108869;-57
2023/10/02 09:31:47;;;;;;;4.85;3.65;;;;;;;25.25;33.43;95788.47;6016068;28;110683;-57
2023/10/02 09:35:13;;;;;;;5.20;3.50;;;;;;;25.26;33.60;95793.53;6015078;28;109172;-61
2023/10/02 09:38:42;;;;;;;5.17;3.87;;;;;;;25.27;33.50;95794.31;6005078;28;109171;-58
2023/10/02 09:41:47;;;;;;;4.72;3.70;;;;;;;25.27;33.17;95792.44;6016322;29;108899;-58
2023/10/02 09:44:53;;;;;;;4.25;3.65;;;;;;;25.27;33.65;95789.75;6015931;28;108923;-57
2023/10/02 09:47:59;;;;;;;4.70;3.70;;;;;;;25.27;33.59;95788.97;6015542;28;109227;-57
2023/10/02 09:51:15;;;;;;;4.70;3.70;;;;;;;25.30;33.76;95788.34;6005704;29;109821;-57
2023/10/02 09:54:28;;;;;;;4.83;3.90;;;;;;;25.32;33.58;95791.50;6015757;28;108985;-58
2023/10/02 09:57:37;;;;;;;4.40;3.63;;;;;;;25.28;33.40;95782.50;6016377;28;108895;-57
2023/10/02 10:00:42;;;;;;;5.60;3.80;;;;;;;25.28;33.56;95795.91;6006866;28;108863;-58
2023/10/02 10:03:51;;;;;;;5.60;3.87;;;;;;;25.29;33.62;95771.47;6014988;28;108940;-57
2023/10/02 10:07:26;;;;;;;4.88;3.90;;;;;;;25.28;33.52;95795.91;6014543;28;108935;-57
2023/10/02 10:10:45;;;;;;;5.03;3.80;;;;;;;25.26;33.73;95793.53;6014984;28;109239;-58
2023/10/02 10:13:51;;;;;;;5.03;3.40;;;;;;;25.25;33.78;95785.81;6005733;28;109402;-58
2023/10/02 10:16:54;;;;;;;5.57;4.28;;;;;;;25.20;33.48;95786.69;6015455;28;108816;-58
2023/10/02 10:20:26;;;;;;;5.82;3.95;;;;;;;25.22;33.62;95789.09;6018655;29;108998;-57
2023/10/02 10:23:34;;;;;;;6.00;4.00;;;;;;;25.18;33.85;95780.88;6009889;28;109309;-58
2023/10/02 10:26:40;;;;;;;4.70;3.53;;;;;;;25.19;33.04;95776.28;6019009;28;108797;-58
2023/10/02 10:30:09;;;;;;;5.30;3.60;;;;;;;25.21;33.31;95774.13;6019427;29;108883;-58
2023/10/02 10:33:35;;;;;;;4.70;3.80;;;;;;;25.17;33.72;95762.41;6018863;28;108954;-59
2023/10/02 10:36:41;;;;;;;5.47;4.00;;;;;;;25.15;33.05;95749.34;6007464;28;108895;-58
2023/10/02 10:40:40;;;;;;;5.50;4.20;;;;;;;25.09;33.77;95759.41;6018486;28;108922;-58
2023/10/02 10:43:43;;;;;;;5.05;3.92;;;;;;;25.06;33.46;95752.00;6018934;28;108762;-58
2023/10/02 10:46:49;;;;;;;5.07;3.97;;;;;;;25.02;33.81;95742.97;6008033;28;108867;-57
2023/10/02 10:50:11;;;;;;;4.63;4.13;;;;;;;25.04;33.74;95748.03;6018613;28;108954;-58
2023/10/02 10:53:27;;;;;;;5.60;4.45;;;;;;;25.04;33.74;95732.75;6019420;28;108996;-58
2023/10/02 10:56:33;;;;;;;5.35;3.90;;;;;;;25.01;33.09;95730.69;6018954;28;108957;-57
2023/10/02 10:59:37;;;;;;;4.20;3.80;;;;;;;25.00;33.71;95731.78;6007638;28;110782;-57
2023/10/02 11:02:40;;;;;;;5.00;4.10;;;;;;;25.00;33.60;95723.75;6019018;29;108897;-57
2023/10/02 11:05:44;;;;;;;4.73;4.00;;;;;;;24.98;33.71;95723.25;6018772;29;109092;-58
2023/10/02 11:09:11;;;;;;;5.07;4.15;;;;;;;24.95;33.62;95731.13;6010392;28;108955;-58
2023/10/02 11:12:17;;;;;;;4.55;4.00;;;;;;;24.95;33.67;95733.81;6017373;28;109126;-57
2023/10/02 11:15:45;;;;;;;5.10;4.10;;;;;;;24.92;33.69;95719.16;6018144;28;109014;-58
2023/10/02 11:19:10;;;;;;;5.65;4.57;;;;;;;24.90;33.27;95718.66;6018355;29;108781;-57
2023/10/02 11:22:18;;;;;;;4.80;4.20;;;;;;;24.90;33.69;95725.91;6007513;28;108950;-58
2023/10/02 11:25:22;;;;;;;5.83;4.30;;;;;;;24.91;33.96;95722.91;6018148;28;109169;-58
2023/10/02 11:28:31;;;;;;;4.80;4.30;;;;;;;24.89;33.94;95722.44;6018164;28;108972;-58
2023/10/02 11:31:36;;;;;;;4.90;4.40;;;;;;;24.86;34.11;95708.84;6008422;28;110330;-59
2023/10/02 11:34:41;;;;;;;5.75;4.85;;;;;;;24.85;34.32;95704.59;6016980;29;109166;-57
2023/10/02 11:37:48;;;;;;;5.55;4.70;;;;;;;24.82;33.60;95700.66;6018168;28;108879;-57
2023/10/02 11:40:52;;;;;;;5.80;4.93;;;;;;;24.79;34.38;95698.59;6017609;28;108953;-58
2023/10/02 11:43:57;;;;;;;5.70;5.10;;;;;;;24.77;33.89;95701.59;6007275;28;109181;-57
2023/10/02 11:47:00;;;;;;;5.68;5.07;;;;;;;24.77;34.42;95706.16;6017915;28;109309;-57
2023/10/02 11:50:04;;;;;;;5.28;4.78;;;;;;;24.76;34.20;95697.31;6017268;28;108980;-57
2023/10/02 11:53:07;;;;;;;5.90;5.30;;;;;;;24.76;34.36;95693.84;6017737;28;109001;-58
2023/10/02 11:56:10;;;;;;;5.88;5.28;;;;;;;24.74;34.59;95691.50;6006668;28;108892;-57
2023/10/02 11:59:15;;;;;;;6.40;5.80;;;;;;;24.72;34.37;95695.56;6017772;28;109012;-58
2023/10/02 12:02:20;;;;;;;6.30;5.70;;;;;;;24.68;34.50;95694.59;6017013;28;123141;-58
2023/10/02 12:05:26;;;;;;;6.20;5.60;;;;;;;24.66;34.51;95694.06;6012294;28;109452;-57
2023/10/02 12:08:33;;;;;;;6.70;6.00;;;;;;;24.64;34.57;95696.28;6012693;28;109007;-58
2023/10/02 12:11:37;;;;;;;6.10;5.50;;;;;;;24.62;34.60;95690.44;6017446;28;108940;-57
2023/10/02 12:14:42;;;;;;;6.07;5.47;;;;;;;24.64;34.50;95696.28;6016882;29;109271;-57
2023/10/02 12:17:47;;;;;;;6.25;5.47;;;;;;;24.62;34.27;95693.13;6009017;28;111673;-57
2023/10/02 12:20:51;;;;;;;5.97;5.38;;;;;;;24.61;34.28;95692.31;6016771;28;108903;-57
2023/10/02 12:23:54;;;;;;;7.53;6.22;;;;;;;24.59;34.54;95686.50;6017760;28;109344;-57
2023/10/02 12:26:58;;;;;;;6.40;5.80;;;;;;;24.58;34.57;95681.44;6017180;28;108955;-57
2023/10/02 12:30:05;;;;;;;6.40;5.55;;;;;;;24.58;34.45;95673.41;6006256;28;109981;-58
2023/10/02 12:33:09;;;;;;;6.55;5.93;;;;;;;24.56;34.61;95675.63;6017011;28;108828;-58
2023/10/02 12:36:14;;;;;;;7.22;6.53;;;;;;;24.56;34.37;95675.63;6007663;28;108969;-58
2023/10/02 12:39:18;;;;;;;8.75;6.90;;;;;;;24.54;34.68;95672.47;6012504;28;108959;-58
2023/10/02 12:42:21;;;;;;;7.18;6.47;;;;;;;24.51;34.78;95676.50;6010192;28;108905;-57
2023/10/02 12:45:26;;;;;;;7.10;6.40;;;;;;;24.52;34.62;95666.59;6015823;28;109253;-57
2023/10/02 12:48:30;;;;;;;7.78;6.97;;;;;;;24.49;34.78;95668.00;6016860;28;108966;-58
2023/10/02 12:51:33;;;;;;;7.60;6.80;;;;;;;24.47;34.73;95664.84;6005166;28;109808;-58
2023/10/02 12:54:37;;;;;;;7.80;7.10;;;;;;;24.47;34.55;95667.53;6016773;28;108927;-57
2023/10/02 12:57:41;;;;;;;8.07;6.70;;;;;;;24.48;34.75;95667.22;6016451;28;109256;-57
2023/10/02 13:00:48;;;;;;;7.65;6.95;;;;;;;24.47;34.77;95670.19;6016654;28;108909;-57
2023/10/02 13:03:52;;;;;;;8.30;7.30;;;;;;;24.46;34.87;95669.41;6005797;28;108999;-58
2023/10/02 13:06:55;;;;;;;8.10;7.40;;;;;;;24.45;34.69;95665.16;6016716;28;109230;-58
2023/10/02 13:09:59;;;;;;;7.80;7.00;;;;;;;24.44;34.80;95674.28;6016605;28;108890;-57
2023/10/02 13:13:04;;;;;;;7.93;7.13;;;;;;;24.43;34.78;95672.69;6014836;28;108976;-59
2023/10/02 13:16:11;;;;;;;8.20;7.40;;;;;;;24.43;34.65;95664.66;6009491;28;109206;-57
2023/10/02 13:19:15;;;;;;;7.90;7.20;;;;;;;24.42;34.95;95657.75;6016540;28;108818;-57
2023/10/02 13:22:20;;;;;;;8.13;7.30;;;;;;;24.43;34.70;95666.56;6016332;28;108863;-57
2023/10/02 13:25:26;;;;;;;8.38;7.50;;;;;;;24.43;34.67;95658.53;6005758;28;110315;-57
2023/10/02 13:28:30;;;;;;;8.87;7.97;;;;;;;24.42;34.88;95657.75;6016023;28;109004;-58
2023/10/02 13:31:34;;;;;;;8.35;7.55;;;;;;;24.41;34.74;95661.50;6016021;28;109003;-57
2023/10/02 13:34:38;;;;;;;7.70;6.90;;;;;;;24.41;34.73;95656.16;6015556;28;108957;-57
2023/10/02 13:37:41;;;;;;;8.02;7.22;;;;;;;24.42;34.62;95648.94;6005511;28;109758;-58
2023/10/02 13:40:44;;;;;;;7.60;6.90;;;;;;;24.41;34.84;95656.16;6015997;28;108849;-57
2023/10/02 13:43:48;;;;;;;8.07;7.00;;;;;;;24.40;35.02;95662.59;6015652;28;109010;-57
2023/10/02 13:46:54;;;;;;;7.80;6.43;;;;;;;24.41;34.82;95655.38;6015259;28;108895;-58
2023/10/02 13:49:58;;;;;;;7.82;7.13;;;;;;;24.40;34.76;95651.91;6005587;28;109027;-57
2023/10/02 13:53:01;;;;;;;7.30;6.60;;;;;;;24.39;34.59;95654.91;6016754;28;108945;-57
2023/10/02 13:56:09;;;;;;;7.90;7.10;;;;;;;24.38;34.69;95656.00;6019888;28;108940;-57
2023/10/02 13:59:14;;;;;;;7.97;7.18;;;;;;;24.38;34.83;95656.78;6011028;28;108905;-60
2023/10/02 14:02:20;;;;;;;7.43;6.72;;;;;;;24.37;34.72;95660.56;6019056;29;108988;-60
2023/10/02 14:05:29;;;;;;;7.45;6.75;;;;;;;24.37;34.53;95668.56;6019557;28;108875;-60
2023/10/02 14:08:32;;;;;;;7.60;6.80;;;;;;;24.37;34.99;95665.09;6020411;29;108636;-59
2023/10/02 14:11:36;;;;;;;7.60;6.90;;;;;;;24.35;34.66;95662.72;6009160;28;108910;-60
2023/10/02 14:14:39;;;;;;;7.70;7.00;;;;;;;24.33;34.72;95672.13;6019827;28;108957;-60
2023/10/02 14:17:44;;;;;;;7.70;6.90;;;;;;;24.33;34.69;95672.94;6018589;28;108970;-60
2023/10/02 14:20:58;;;;;;;7.60;6.90;;;;;;;24.30;34.82;95675.44;6019421;28;108912;-60
2023/10/02 14:24:02;;;;;;;7.53;6.82;;;;;;;24.28;34.90;95683.75;6008861;28;109028;-59
2023/10/02 14:27:08;;;;;;;7.00;6.30;;;;;;;24.30;34.48;95681.56;6019220;28;109318;-59
2023/10/02 14:30:13;;;;;;;7.80;7.00;;;;;;;24.29;35.08;95682.66;6019518;28;108936;-60
2023/10/02 14:33:18;;;;;;;7.20;6.50;;;;;;;24.28;34.94;95691.78;6012196;29;108912;-60
2023/10/02 14:36:22;;;;;;;7.30;6.60;;;;;;;24.27;34.70;95682.19;6017591;28;108959;-59
2023/10/02 14:39:30;;;;;;;7.40;6.70;;;;;;;24.28;34.55;95694.47;6019263;28;108960;-60
2023/10/02 14:42:34;;;;;;;7.40;6.70;;;;;;;24.25;34.66;95689.72;6019168;28;108976;-59
2023/10/02 14:45:39;;;;;;;8.20;7.07;;;;;;;24.26;35.25;95695.88;6007714;28;111243;-60
2023/10/02 14:48:44;;;;;;;7.35;6.65;;;;;;;24.25;34.82;95694.28;6018698;28;108941;-61